Time;durP1;ratioP1;P1;durP2;ratioP2;P2;SDS_P1;SDS_P2;PMS_P1;PMS_P2;Temp;Humidity;BMP_temperature;BMP_pressure;BME280_temperature;BME280_humidity;BME280_pressure;Samples;Min_cycle;Max_cycle;Signal;HPM_P1;HPM_P2
2021/10/02 00:35:19;;;;;;;3.70;2.35;;;14.40;95.30;;;;;;5117592;28;20553;-73
2021/10/02 00:45:40;;;;;;;4.80;3.08;;;14.40;95.20;;;;;;5117056;28;20093;-74
2021/10/02 00:48:08;;;;;;;5.97;3.05;;;14.40;95.20;;;;;;5098735;28;20019;-74
2021/10/02 00:50:34;;;;;;;4.28;3.20;;;14.40;95.20;;;;;;5117053;28;20106;-74
2021/10/02 00:52:59;;;;;;;4.10;2.90;;;14.40;95.20;;;;;;5116900;28;20103;-74
2021/10/02 00:55:25;;;;;;;4.63;3.20;;;14.40;95.20;;;;;;5116348;28;20434;-73
2021/10/02 00:57:50;;;;;;;3.88;2.55;;;14.40;95.20;;;;;;5116792;28;20020;-73
2021/10/02 01:00:16;;;;;;;3.90;2.53;;;14.40;95.20;;;;;;5116773;28;20107;-73
2021/10/02 01:03:06;;;;;;;4.00;2.58;;;14.40;95.20;;;;;;5116614;28;20016;-74
2021/10/02 01:05:56;;;;;;;4.72;2.78;;;14.50;95.10;;;;;;5116639;28;20137;-74
2021/10/02 01:08:28;;;;;;;3.33;2.28;;;14.50;95.10;;;;;;5116622;28;20076;-74
2021/10/02 01:11:03;;;;;;;4.47;3.25;;;14.50;95.20;;;;;;5097658;28;20035;-74
2021/10/02 01:13:45;;;;;;;3.80;2.22;;;14.50;95.20;;;;;;5098271;28;20108;-74
2021/10/02 01:16:34;;;;;;;4.15;2.63;;;14.50;95.20;;;;;;5098269;28;20031;-73
2021/10/02 01:19:31;;;;;;;4.53;2.90;;;14.50;95.10;;;;;;5116537;28;20055;-73
2021/10/02 01:22:18;;;;;;;4.28;3.00;;;14.50;95.10;;;;;;5116445;28;20019;-73
2021/10/02 01:25:26;;;;;;;5.32;3.45;;;14.50;95.20;;;;;;5115836;28;20035;-73
2021/10/02 01:28:03;;;;;;;4.38;3.08;;;14.50;95.20;;;;;;5087010;28;20028;-73
2021/10/02 01:30:51;;;;;;;5.38;2.90;;;14.50;95.20;;;;;;5116314;28;20019;-74
2021/10/02 01:36:56;;;;;;;3.88;2.97;;;14.50;95.20;;;;;;5053352;28;20162;-73
2021/10/02 01:47:51;;;;;;;4.57;3.03;;;14.50;95.20;;;;;;5053712;28;20040;-74
2021/10/02 01:50:26;;;;;;;5.00;3.78;;;14.60;95.20;;;;;;5036230;28;20025;-74
2021/10/02 01:52:53;;;;;;;4.90;3.35;;;14.50;95.10;;;;;;5052813;28;20029;-74
2021/10/02 01:55:23;;;;;;;5.25;3.22;;;14.50;95.10;;;;;;5053134;28;20107;-73
2021/10/02 01:57:52;;;;;;;6.28;3.38;;;14.50;95.20;;;;;;5053044;28;20025;-73
2021/10/02 02:00:19;;;;;;;3.97;2.95;;;14.50;95.20;;;;;;5052906;28;20043;-73
2021/10/02 02:02:48;;;;;;;4.82;2.78;;;14.60;95.20;;;;;;5052809;28;20021;-74
2021/10/02 02:05:17;;;;;;;5.70;3.33;;;14.60;95.20;;;;;;5052700;28;20040;-72
2021/10/02 02:07:48;;;;;;;5.18;3.30;;;14.60;95.10;;;;;;5093854;28;20028;-73
2021/10/02 02:10:15;;;;;;;5.05;2.80;;;14.60;95.10;;;;;;5115303;28;20026;-72
2021/10/02 02:12:42;;;;;;;5.45;3.55;;;14.60;95.10;;;;;;5115416;28;20030;-74
2021/10/02 02:15:11;;;;;;;6.38;3.47;;;14.60;95.10;;;;;;5115394;28;20043;-72
2021/10/02 02:17:43;;;;;;;5.30;3.17;;;14.60;95.10;;;;;;5115453;28;20098;-74
2021/10/02 02:20:11;;;;;;;4.32;2.88;;;14.60;95.10;;;;;;5115282;28;20513;-74
2021/10/02 02:22:37;;;;;;;3.75;2.65;;;14.50;95.10;;;;;;5096603;28;20016;-74
2021/10/02 02:25:04;;;;;;;5.97;3.00;;;14.60;95.10;;;;;;5115165;28;20084;-74
2021/10/02 02:27:30;;;;;;;4.78;2.50;;;14.60;95.10;;;;;;5114915;28;20590;-74
2021/10/02 02:29:57;;;;;;;4.32;3.40;;;14.60;95.10;;;;;;5115042;28;20035;-74
2021/10/02 02:32:23;;;;;;;5.13;3.20;;;14.60;95.00;;;;;;5115263;28;20081;-74
2021/10/02 02:34:50;;;;;;;5.93;3.33;;;14.60;94.90;;;;;;5114970;28;20107;-74
2021/10/02 02:37:15;;;;;;;6.65;3.67;;;14.60;95.00;;;;;;5114448;28;20043;-74
2021/10/02 02:39:42;;;;;;;5.30;3.53;;;14.60;94.90;;;;;;5114185;28;20074;-74
2021/10/02 02:42:08;;;;;;;5.32;2.88;;;14.60;94.90;;;;;;5114725;28;20027;-75
2021/10/02 02:44:34;;;;;;;4.13;2.65;;;14.60;94.90;;;;;;5114681;28;20468;-74
2021/10/02 02:47:07;;;;;;;4.47;2.80;;;14.60;94.90;;;;;;5096522;28;20027;-74
2021/10/02 02:49:54;;;;;;;6.45;3.72;;;14.60;94.90;;;;;;5114600;28;20122;-73
2021/10/02 02:52:58;;;;;;;4.10;3.03;;;14.60;94.90;;;;;;5095862;28;20102;-73
2021/10/02 02:55:26;;;;;;;5.93;3.55;;;14.60;94.90;;;;;;5114546;28;20026;-72
2021/10/02 02:58:02;;;;;;;3.90;2.30;;;14.60;95.00;;;;;;5114524;28;20015;-72
2021/10/02 03:00:29;;;;;;;4.90;3.50;;;14.60;94.90;;;;;;5114390;28;20032;-74
2021/10/02 03:03:05;;;;;;;5.50;3.28;;;14.60;94.90;;;;;;5114481;28;20156;-73
2021/10/02 03:05:31;;;;;;;5.90;3.63;;;14.70;94.90;;;;;;5113711;28;20472;-73
2021/10/02 03:08:23;;;;;;;6.38;3.42;;;14.60;94.90;;;;;;5114291;28;20476;-74
2021/10/02 03:10:52;;;;;;;4.45;3.13;;;14.60;94.90;;;;;;5110034;28;20054;-73
2021/10/02 03:13:19;;;;;;;6.18;3.05;;;14.60;94.90;;;;;;5114334;28;20024;-73
2021/10/02 03:15:47;;;;;;;4.43;2.72;;;14.60;94.90;;;;;;5114120;28;20023;-73
2021/10/02 03:18:15;;;;;;;3.92;2.53;;;14.60;94.90;;;;;;5114101;28;20414;-73
2021/10/02 03:20:42;;;;;;;4.90;2.50;;;14.60;94.90;;;;;;5113681;28;20034;-73
2021/10/02 03:23:08;;;;;;;4.65;2.70;;;14.60;94.90;;;;;;5114099;28;20077;-74
2021/10/02 03:25:34;;;;;;;9.65;3.78;;;14.60;94.90;;;;;;5114002;28;20032;-73
2021/10/02 03:28:03;;;;;;;3.55;2.42;;;14.60;94.90;;;;;;5114126;28;20102;-74
2021/10/02 03:30:30;;;;;;;5.53;3.00;;;14.60;94.80;;;;;;5095552;28;20023;-74
2021/10/02 03:32:55;;;;;;;4.80;3.50;;;14.60;94.80;;;;;;5095805;28;20026;-73
2021/10/02 03:35:22;;;;;;;5.10;3.22;;;14.60;94.80;;;;;;5113516;28;20027;-73
2021/10/02 03:37:50;;;;;;;5.40;3.40;;;14.60;94.80;;;;;;5095745;28;20016;-73
2021/10/02 03:40:20;;;;;;;5.47;3.13;;;14.60;94.80;;;;;;5113985;28;20051;-73
2021/10/02 03:42:48;;;;;;;6.00;3.72;;;14.60;94.80;;;;;;5113750;28;20023;-73
2021/10/02 03:45:16;;;;;;;4.00;2.63;;;14.60;94.80;;;;;;5095482;28;20089;-73
2021/10/02 03:47:41;;;;;;;4.43;3.17;;;14.60;94.80;;;;;;5095527;28;20372;-74
2021/10/02 03:50:08;;;;;;;3.88;2.65;;;14.50;94.80;;;;;;5113245;28;20031;-73
2021/10/02 03:52:34;;;;;;;4.65;2.60;;;14.50;94.90;;;;;;5113514;28;20020;-73
2021/10/02 03:55:00;;;;;;;5.45;3.65;;;14.50;94.90;;;;;;5113715;28;20103;-73
2021/10/02 03:57:26;;;;;;;4.20;3.15;;;14.50;94.90;;;;;;5113596;28;20115;-74
2021/10/02 03:59:51;;;;;;;5.28;3.50;;;14.60;94.90;;;;;;5113662;28;20051;-74
2021/10/02 04:02:17;;;;;;;5.22;3.17;;;14.50;94.80;;;;;;5095420;28;20032;-72
2021/10/02 04:04:42;;;;;;;4.82;2.70;;;14.50;94.90;;;;;;5112878;28;20081;-74
2021/10/02 04:07:08;;;;;;;4.80;3.35;;;14.50;94.90;;;;;;5113629;28;20480;-73
2021/10/02 04:09:34;;;;;;;6.60;4.43;;;14.50;94.90;;;;;;5113494;28;20024;-73
2021/10/02 04:11:59;;;;;;;5.15;3.40;;;14.50;94.90;;;;;;5095145;28;20050;-73
2021/10/02 04:14:25;;;;;;;5.57;3.47;;;14.40;94.90;;;;;;5113511;28;20421;-73
2021/10/02 04:16:50;;;;;;;5.40;3.22;;;14.40;94.90;;;;;;5095182;28;20024;-73
2021/10/02 04:19:16;;;;;;;7.15;3.60;;;14.40;94.90;;;;;;5113076;28;20015;-72
2021/10/02 04:21:42;;;;;;;6.25;3.63;;;14.40;95.00;;;;;;5113512;28;20380;-74
2021/10/02 04:24:07;;;;;;;4.97;3.47;;;14.40;94.90;;;;;;5113533;28;20383;-73
2021/10/02 04:26:34;;;;;;;5.05;2.90;;;14.40;94.90;;;;;;5113317;28;20490;-74
2021/10/02 04:28:59;;;;;;;8.07;4.25;;;14.40;94.90;;;;;;5094953;28;20027;-74
2021/10/02 04:31:25;;;;;;;5.47;3.15;;;14.50;94.90;;;;;;5113369;28;20024;-73
2021/10/02 04:33:50;;;;;;;4.65;2.78;;;14.50;94.90;;;;;;5112910;28;20046;-73
2021/10/02 04:36:16;;;;;;;5.05;3.30;;;14.50;94.90;;;;;;5113245;28;20024;-73
2021/10/02 04:38:43;;;;;;;6.03;3.67;;;14.40;94.80;;;;;;5094955;28;20375;-73
2021/10/02 04:41:09;;;;;;;6.72;3.70;;;14.40;94.80;;;;;;5113242;28;20028;-73
2021/10/02 04:43:39;;;;;;;4.97;3.22;;;14.50;94.80;;;;;;5113296;28;20094;-73
2021/10/02 04:46:04;;;;;;;5.68;3.08;;;14.50;94.80;;;;;;5094914;28;20115;-73
2021/10/02 04:48:30;;;;;;;5.20;2.72;;;14.50;94.80;;;;;;5112673;28;20098;-73
2021/10/02 04:50:56;;;;;;;4.28;2.33;;;14.50;94.80;;;;;;5113114;28;20031;-74
2021/10/02 04:53:22;;;;;;;5.25;3.33;;;14.50;94.80;;;;;;5113799;28;20048;-72
2021/10/02 04:55:48;;;;;;;7.97;4.75;;;14.40;94.80;;;;;;5112990;28;20479;-72
2021/10/02 04:58:13;;;;;;;5.80;3.53;;;14.40;94.80;;;;;;5113085;28;20106;-73
2021/10/02 05:00:38;;;;;;;5.22;3.25;;;14.40;94.80;;;;;;5113181;28;20031;-72
2021/10/02 05:03:04;;;;;;;6.40;3.45;;;14.30;94.90;;;;;;5114962;28;20051;-73
2021/10/02 05:05:29;;;;;;;7.28;3.42;;;14.30;94.90;;;;;;5116691;28;20433;-73
2021/10/02 05:07:55;;;;;;;7.00;3.58;;;14.30;94.90;;;;;;5098373;28;20119;-73
2021/10/02 05:10:21;;;;;;;6.47;3.72;;;14.30;94.90;;;;;;5116468;28;20031;-73
2021/10/02 05:12:46;;;;;;;5.55;3.17;;;14.30;94.90;;;;;;5116657;28;20024;-72
2021/10/02 05:15:12;;;;;;;6.60;3.55;;;14.30;94.90;;;;;;5116589;28;20472;-73
2021/10/02 05:17:37;;;;;;;6.15;3.45;;;14.30;94.90;;;;;;5116060;28;20388;-74
2021/10/02 05:20:05;;;;;;;6.53;3.90;;;14.30;94.80;;;;;;5116307;28;20111;-73
2021/10/02 05:22:30;;;;;;;4.97;2.92;;;14.30;94.80;;;;;;5116389;28;20034;-73
2021/10/02 05:24:56;;;;;;;6.85;3.83;;;14.30;94.80;;;;;;5116306;28;20111;-73
2021/10/02 05:27:21;;;;;;;6.95;3.83;;;14.30;94.80;;;;;;5116226;28;20034;-73
2021/10/02 05:29:48;;;;;;;5.05;3.08;;;14.20;94.80;;;;;;5115859;28;20382;-74
2021/10/02 05:32:14;;;;;;;5.30;2.80;;;14.20;94.90;;;;;;5116172;28;20043;-71
2021/10/02 05:34:39;;;;;;;12.38;4.15;;;14.10;94.90;;;;;;5116200;28;20059;-73
2021/10/02 05:37:05;;;;;;;7.28;3.63;;;14.10;94.90;;;;;;5116033;28;20024;-73
2021/10/02 05:39:31;;;;;;;5.78;3.67;;;14.10;94.90;;;;;;5116060;28;20051;-73
2021/10/02 05:41:56;;;;;;;7.20;4.03;;;14.10;94.90;;;;;;5097858;28;20027;-73
2021/10/02 05:44:24;;;;;;;5.68;2.90;;;14.10;94.90;;;;;;5115469;28;20036;-73
2021/10/02 05:46:50;;;;;;;6.45;3.45;;;14.10;94.90;;;;;;5097635;28;20026;-72
2021/10/02 05:49:15;;;;;;;6.13;3.95;;;14.10;94.90;;;;;;5115920;28;20024;-72
2021/10/02 05:51:41;;;;;;;5.10;3.15;;;14.10;94.80;;;;;;5115913;28;20024;-72
2021/10/02 05:54:08;;;;;;;4.72;2.85;;;14.00;94.80;;;;;;5097524;28;20028;-73
2021/10/02 05:56:33;;;;;;;6.00;3.55;;;14.00;94.80;;;;;;5115588;28;20019;-72
2021/10/02 05:58:59;;;;;;;5.30;3.33;;;14.00;94.80;;;;;;5115335;28;20028;-72
2021/10/02 06:01:24;;;;;;;4.63;3.05;;;13.90;94.80;;;;;;5097464;28;20494;-73
2021/10/02 06:03:50;;;;;;;4.50;2.88;;;13.90;94.80;;;;;;5097282;28;20034;-73
2021/10/02 06:06:16;;;;;;;6.32;3.65;;;13.90;94.80;;;;;;5115625;28;20051;-73
2021/10/02 06:08:41;;;;;;;5.78;2.92;;;13.90;94.80;;;;;;5115463;28;20094;-72
2021/10/02 06:11:07;;;;;;;4.97;3.03;;;13.90;94.80;;;;;;5096673;28;20054;-72
2021/10/02 06:13:33;;;;;;;5.75;3.13;;;13.80;94.70;;;;;;5095737;28;20478;-72
2021/10/02 06:16:02;;;;;;;5.30;3.55;;;13.80;94.70;;;;;;5115347;28;20024;-73
2021/10/02 06:18:27;;;;;;;4.80;2.85;;;13.80;94.70;;;;;;5115438;28;20464;-72
2021/10/02 06:20:53;;;;;;;5.13;3.38;;;13.80;94.70;;;;;;5115365;28;20519;-72
2021/10/02 06:23:19;;;;;;;4.32;2.60;;;13.80;94.70;;;;;;5115279;28;20073;-73
2021/10/02 06:25:45;;;;;;;5.60;3.08;;;13.80;94.60;;;;;;5096757;28;20031;-72
2021/10/02 06:28:11;;;;;;;5.30;3.40;;;13.80;94.60;;;;;;5114640;28;20095;-73
2021/10/02 06:30:36;;;;;;;5.20;2.90;;;13.80;94.60;;;;;;5115153;28;20047;-72
2021/10/02 06:33:02;;;;;;;3.38;2.45;;;13.90;94.60;;;;;;5115061;28;20027;-73
2021/10/02 06:35:28;;;;;;;3.88;2.53;;;13.90;94.60;;;;;;5114864;28;20019;-73
2021/10/02 06:37:53;;;;;;;4.00;3.08;;;13.90;94.60;;;;;;5114979;28;20023;-73
2021/10/02 06:40:19;;;;;;;5.35;3.20;;;13.90;94.50;;;;;;5114873;28;20023;-73
2021/10/02 06:42:45;;;;;;;5.10;3.20;;;13.90;94.50;;;;;;5114358;28;20023;-73
2021/10/02 06:45:11;;;;;;;4.88;3.28;;;13.90;94.60;;;;;;5096371;28;20130;-73
2021/10/02 06:47:37;;;;;;;5.55;2.95;;;13.90;94.60;;;;;;5114744;28;20403;-72
2021/10/02 06:50:03;;;;;;;4.75;3.03;;;13.90;94.60;;;;;;5114714;28;20103;-72
2021/10/02 06:52:30;;;;;;;4.30;2.45;;;13.90;94.60;;;;;;5114565;28;20031;-73
2021/10/02 06:54:57;;;;;;;4.38;2.63;;;14.00;94.70;;;;;;5114630;28;20027;-72
2021/10/02 06:57:23;;;;;;;4.88;2.58;;;14.00;94.70;;;;;;5113984;28;20027;-72
2021/10/02 06:59:49;;;;;;;5.70;2.88;;;14.00;94.60;;;;;;5114417;28;20388;-72
2021/10/02 07:02:15;;;;;;;6.13;3.90;;;14.10;94.70;;;;;;5114472;28;20011;-72
2021/10/02 07:04:42;;;;;;;4.28;2.83;;;14.10;94.70;;;;;;5114426;28;20384;-71
2021/10/02 07:07:08;;;;;;;4.82;3.35;;;14.20;94.70;;;;;;5114328;28;20024;-71
2021/10/02 07:09:34;;;;;;;8.70;3.95;;;14.20;94.60;;;;;;5114324;28;20046;-72
2021/10/02 07:11:59;;;;;;;5.50;3.05;;;14.30;94.70;;;;;;5113715;28;20059;-72
2021/10/02 07:14:25;;;;;;;4.28;3.00;;;14.30;94.70;;;;;;5096047;28;20118;-71
2021/10/02 07:16:50;;;;;;;6.85;3.47;;;14.30;94.70;;;;;;5114272;28;20020;-71
2021/10/02 07:19:17;;;;;;;5.28;3.28;;;14.30;94.70;;;;;;5114117;28;20027;-70
2021/10/02 07:21:43;;;;;;;5.00;3.22;;;14.40;94.70;;;;;;5114086;28;20456;-71
2021/10/02 07:24:09;;;;;;;6.40;3.40;;;14.40;94.60;;;;;;5095779;28;20023;-72
2021/10/02 07:26:35;;;;;;;5.00;2.85;;;14.40;94.60;;;;;;5113176;28;20039;-72
2021/10/02 07:29:00;;;;;;;4.65;2.63;;;14.50;94.60;;;;;;5114155;28;20020;-73
2021/10/02 07:31:26;;;;;;;5.22;2.63;;;14.50;94.60;;;;;;5095724;28;20494;-71
2021/10/02 07:33:52;;;;;;;6.13;2.35;;;14.50;94.60;;;;;;5113920;28;20384;-72
2021/10/02 07:36:18;;;;;;;4.10;2.45;;;14.50;94.60;;;;;;5113844;28;20070;-72
2021/10/02 07:38:44;;;;;;;7.88;3.03;;;14.50;94.60;;;;;;5113865;28;20100;-71
2021/10/02 07:41:12;;;;;;;5.07;3.00;;;14.50;94.60;;;;;;5113305;28;20536;-72
2021/10/02 07:43:40;;;;;;;5.53;2.90;;;14.60;94.60;;;;;;5113969;28;20026;-72
2021/10/02 07:46:09;;;;;;;4.30;2.63;;;14.60;94.60;;;;;;5113813;28;20031;-72
2021/10/02 07:48:34;;;;;;;4.82;3.13;;;14.60;94.60;;;;;;5113757;28;20457;-70
2021/10/02 07:51:00;;;;;;;5.05;3.20;;;14.60;94.50;;;;;;5113770;28;20019;-72
2021/10/02 07:53:31;;;;;;;4.53;2.88;;;14.60;94.50;;;;;;5113681;28;20448;-72
2021/10/02 07:56:01;;;;;;;4.45;2.95;;;14.70;94.50;;;;;;5113472;28;20470;-72
2021/10/02 07:58:30;;;;;;;3.60;2.30;;;14.70;94.50;;;;;;5113736;28;20051;-72
2021/10/02 08:00:56;;;;;;;4.87;3.87;;;14.70;94.50;;;;;;5095400;28;20066;-72
2021/10/02 08:03:23;;;;;;;4.93;2.92;;;14.80;94.40;;;;;;5095181;28;20258;-73
2021/10/02 08:05:49;;;;;;;4.68;3.20;;;14.90;94.40;;;;;;5113486;28;20040;-71
2021/10/02 08:08:16;;;;;;;6.05;3.15;;;15.00;94.40;;;;;;5113568;28;20020;-72
2021/10/02 08:10:43;;;;;;;3.38;2.30;;;15.10;94.30;;;;;;5112879;28;20514;-73
2021/10/02 08:13:12;;;;;;;4.03;2.17;;;15.10;94.30;;;;;;5095107;28;20484;-72
2021/10/02 08:15:42;;;;;;;6.45;3.10;;;15.10;94.30;;;;;;5095228;28;20492;-72
2021/10/02 08:18:09;;;;;;;4.20;2.28;;;15.10;94.20;;;;;;5113416;28;20080;-72
2021/10/02 08:20:35;;;;;;;3.60;2.10;;;15.10;94.30;;;;;;5095237;28;20027;-72
2021/10/02 08:23:02;;;;;;;4.93;2.72;;;15.10;94.40;;;;;;5113480;28;20020;-72
2021/10/02 08:25:31;;;;;;;4.22;2.72;;;15.10;94.40;;;;;;5094626;28;20036;-71
2021/10/02 08:27:59;;;;;;;4.45;2.80;;;15.20;94.30;;;;;;5095134;28;20110;-72
2021/10/02 08:30:25;;;;;;;4.53;3.08;;;15.10;94.50;;;;;;5113333;28;20030;-72
2021/10/02 08:32:51;;;;;;;4.38;2.72;;;15.10;94.30;;;;;;5113333;28;20076;-71
2021/10/02 08:35:17;;;;;;;4.35;3.15;;;15.10;94.40;;;;;;5095047;28;20024;-72
2021/10/02 08:37:43;;;;;;;3.95;2.83;;;15.20;94.30;;;;;;5115046;28;20422;-73
2021/10/02 08:40:12;;;;;;;4.32;2.83;;;15.30;94.30;;;;;;5116869;28;20460;-71
2021/10/02 08:42:39;;;;;;;4.82;2.75;;;15.40;94.30;;;;;;5117151;28;20055;-71
2021/10/02 08:45:07;;;;;;;5.53;3.55;;;15.50;94.20;;;;;;5098670;28;20032;-71
2021/10/02 08:47:38;;;;;;;6.13;3.33;;;15.50;94.10;;;;;;5117057;28;20023;-73
2021/10/02 08:50:06;;;;;;;4.57;2.92;;;15.60;94.20;;;;;;5117182;28;20071;-72
2021/10/02 08:52:32;;;;;;;3.35;2.33;;;15.60;94.50;;;;;;5117017;28;20054;-72
2021/10/02 08:54:59;;;;;;;4.18;2.35;;;15.60;94.10;;;;;;5098182;28;20027;-72
2021/10/02 08:57:26;;;;;;;4.18;2.78;;;15.70;94.20;;;;;;5116853;28;20031;-72
2021/10/02 08:59:54;;;;;;;3.78;2.40;;;15.70;94.20;;;;;;5116929;28;20026;-71
2021/10/02 09:02:21;;;;;;;6.07;2.40;;;15.70;94.10;;;;;;5116801;28;20464;-71
2021/10/02 09:04:48;;;;;;;3.28;2.17;;;15.70;94.10;;;;;;5116782;28;20035;-72
2021/10/02 09:07:19;;;;;;;4.38;2.47;;;15.70;94.10;;;;;;5117013;28;20026;-72
2021/10/02 09:09:47;;;;;;;3.22;2.15;;;15.70;94.10;;;;;;5116856;28;20024;-73
2021/10/02 09:12:17;;;;;;;3.13;2.20;;;15.70;94.20;;;;;;5098101;28;20085;-73
2021/10/02 09:14:43;;;;;;;4.07;2.42;;;15.70;94.20;;;;;;5116672;28;20110;-71
2021/10/02 09:17:08;;;;;;;4.05;2.60;;;15.70;94.10;;;;;;5116516;28;20423;-72
2021/10/02 09:19:34;;;;;;;4.07;2.33;;;15.70;94.10;;;;;;5116593;28;20023;-72
2021/10/02 09:22:03;;;;;;;4.50;2.55;;;15.70;94.10;;;;;;5115908;28;20145;-72
2021/10/02 09:24:44;;;;;;;4.25;2.55;;;15.70;94.00;;;;;;5116324;28;20468;-72
2021/10/02 09:27:21;;;;;;;3.08;2.28;;;15.60;94.00;;;;;;5116365;28;20049;-72
2021/10/02 09:29:54;;;;;;;3.42;2.30;;;15.70;94.10;;;;;;5098052;28;20020;-72
2021/10/02 09:32:25;;;;;;;3.63;2.22;;;15.70;94.10;;;;;;5116360;28;20031;-71
2021/10/02 09:34:59;;;;;;;3.83;1.90;;;15.70;94.10;;;;;;5097794;28;20140;-72
2021/10/02 09:37:33;;;;;;;2.58;2.20;;;15.80;94.10;;;;;;5115750;28;20408;-72
2021/10/02 09:40:17;;;;;;;3.17;2.13;;;15.80;94.10;;;;;;5116180;28;20020;-73
2021/10/02 09:42:49;;;;;;;6.10;2.42;;;15.80;94.00;;;;;;5115928;28;20027;-72
2021/10/02 09:45:21;;;;;;;3.30;2.35;;;15.80;94.10;;;;;;5097681;28;20032;-72
2021/10/02 09:47:51;;;;;;;3.25;2.33;;;16.00;94.10;;;;;;5115784;28;20461;-71
2021/10/02 09:50:22;;;;;;;2.40;2.00;;;16.10;94.00;;;;;;5097657;28;20476;-71
2021/10/02 09:52:54;;;;;;;3.55;2.20;;;16.20;94.00;;;;;;5115520;28;20022;-72
2021/10/02 09:55:26;;;;;;;2.72;1.95;;;16.20;94.00;;;;;;5115913;28;20038;-72
2021/10/02 09:57:58;;;;;;;2.35;1.80;;;16.40;93.90;;;;;;5115716;28;20047;-72
2021/10/02 10:00:30;;;;;;;2.88;1.90;;;16.50;93.90;;;;;;5115726;28;20024;-71
2021/10/02 10:02:59;;;;;;;3.40;2.03;;;16.60;93.80;;;;;;5097782;28;20032;-71
2021/10/02 10:05:33;;;;;;;3.80;2.10;;;16.60;93.70;;;;;;5115020;28;20031;-71
2021/10/02 10:08:01;;;;;;;2.38;1.70;;;16.70;93.70;;;;;;5115611;28;20432;-72
2021/10/02 10:10:33;;;;;;;2.63;1.60;;;16.80;93.80;;;;;;5115295;28;20079;-72
2021/10/02 10:13:23;;;;;;;2.80;1.90;;;16.80;93.70;;;;;;5115487;28;20064;-72
2021/10/02 10:15:55;;;;;;;2.75;2.08;;;16.80;93.80;;;;;;5115050;28;20455;-71
2021/10/02 10:18:34;;;;;;;2.33;1.80;;;16.90;93.70;;;;;;5115268;28;20028;-72
2021/10/02 10:21:02;;;;;;;1.65;1.40;;;16.90;93.60;;;;;;5115092;28;20028;-72
2021/10/02 10:23:30;;;;;;;1.83;1.53;;;16.90;93.70;;;;;;5096979;28;20047;-72
2021/10/02 10:26:05;;;;;;;2.17;1.73;;;16.80;93.90;;;;;;5114977;28;20042;-72
2021/10/02 10:28:33;;;;;;;1.80;1.60;;;16.80;93.70;;;;;;5115451;28;20024;-73
2021/10/02 10:31:14;;;;;;;2.08;1.70;;;16.70;93.70;;;;;;5115013;28;20023;-72
2021/10/02 10:33:42;;;;;;;2.58;1.80;;;16.70;93.70;;;;;;5115060;28;20451;-72
2021/10/02 10:36:12;;;;;;;2.28;1.75;;;16.70;93.80;;;;;;5096303;28;20119;-72
2021/10/02 10:38:39;;;;;;;2.85;1.98;;;16.80;93.80;;;;;;5114984;28;20023;-72
2021/10/02 10:41:05;;;;;;;1.95;1.67;;;16.90;93.70;;;;;;5114990;28;20043;-73
2021/10/02 10:43:32;;;;;;;2.15;1.77;;;16.90;93.60;;;;;;5114763;28;20032;-72
2021/10/02 10:46:01;;;;;;;2.45;1.88;;;16.90;93.50;;;;;;5114514;28;20498;-74
2021/10/02 10:48:30;;;;;;;1.60;1.48;;;17.00;93.50;;;;;;5114802;28;20023;-72
2021/10/02 10:51:05;;;;;;;2.33;1.98;;;17.00;93.50;;;;;;5114203;28;20457;-73
2021/10/02 10:53:51;;;;;;;2.58;2.00;;;17.10;93.40;;;;;;5114870;28;20090;-73
2021/10/02 10:56:42;;;;;;;4.18;2.05;;;17.20;93.40;;;;;;5114542;28;20043;-73
2021/10/02 10:59:08;;;;;;;2.70;1.40;;;17.30;93.30;;;;;;5114570;28;20102;-72
2021/10/02 11:01:39;;;;;;;3.13;2.05;;;17.30;93.30;;;;;;5095864;28;20055;-73
2021/10/02 11:04:06;;;;;;;1.20;1.10;;;17.50;93.30;;;;;;5114027;28;20031;-71
2021/10/02 11:06:51;;;;;;;1.30;1.20;;;17.50;93.30;;;;;;5114281;28;20032;-72
2021/10/02 11:09:40;;;;;;;1.40;1.20;;;17.60;93.30;;;;;;5114387;28;20028;-72
2021/10/02 11:12:07;;;;;;;0.93;0.93;;;17.70;93.20;;;;;;5114310;28;20059;-72
2021/10/02 11:14:51;;;;;;;1.33;1.23;;;17.70;93.20;;;;;;5114403;28;20444;-73
2021/10/02 11:17:31;;;;;;;1.45;1.33;;;17.70;93.10;;;;;;5114241;28;20465;-72
2021/10/02 11:19:57;;;;;;;1.60;1.30;;;17.60;93.20;;;;;;5113715;28;20460;-72
2021/10/02 11:23:08;;;;;;;1.40;1.30;;;17.50;93.20;;;;;;5114046;28;20023;-73
2021/10/02 11:25:35;;;;;;;1.58;1.05;;;17.30;93.20;;;;;;5113982;28;20047;-72
2021/10/02 11:28:22;;;;;;;1.10;1.00;;;17.30;93.40;;;;;;5114383;28;20030;-72
2021/10/02 11:30:51;;;;;;;1.17;1.08;;;17.30;93.40;;;;;;5114019;28;20020;-73
2021/10/02 11:33:40;;;;;;;0.82;0.82;;;17.30;93.30;;;;;;5113321;28;20502;-71
2021/10/02 11:36:24;;;;;;;;;;;17.30;93.30;;;;;;5114343;28;20445;-72
2021/10/02 11:39:07;;;;;;;0.55;0.55;;;17.20;93.60;;;;;;5113902;28;19915;-72
2021/10/02 11:41:36;;;;;;;0.82;0.82;;;17.20;93.50;;;;;;5095799;28;20380;-73
2021/10/02 11:44:02;;;;;;;0.85;0.80;;;17.20;93.50;;;;;;5113843;28;20035;-74
2021/10/02 11:46:28;;;;;;;1.08;0.77;;;17.30;93.50;;;;;;5113808;28;20031;-74
2021/10/02 11:48:54;;;;;;;0.60;0.60;;;17.40;93.30;;;;;;5113402;28;20027;-73
2021/10/02 11:51:24;;;;;;;0.70;0.70;;;17.60;93.30;;;;;;5095495;28;20055;-73
2021/10/02 11:53:53;;;;;;;1.02;0.80;;;17.70;93.20;;;;;;5113797;28;20016;-72
2021/10/02 11:56:21;;;;;;;;;;;17.90;93.20;;;;;;5095834;28;20113;-73
2021/10/02 11:58:49;;;;;;;0.73;0.73;;;18.00;93.30;;;;;;5113659;28;19903;-76
2021/10/02 12:01:28;;;;;;;0.95;0.90;;;18.10;93.10;;;;;;5095414;28;20024;-75
2021/10/02 12:04:14;;;;;;;1.45;1.10;;;18.10;93.00;;;;;;5113750;28;20373;-73
2021/10/02 12:06:45;;;;;;;1.23;1.10;;;18.10;93.00;;;;;;5113518;28;20027;-74
2021/10/02 12:09:14;;;;;;;0.80;0.80;;;18.10;93.10;;;;;;5113612;28;20031;-75
2021/10/02 12:11:45;;;;;;;0.77;0.77;;;18.20;93.20;;;;;;5113509;28;20180;-73
2021/10/02 12:14:17;;;;;;;1.20;1.10;;;18.30;93.20;;;;;;5117980;28;20015;-76
2021/10/02 12:16:43;;;;;;;1.00;0.90;;;18.50;93.10;;;;;;5117350;28;20019;-73
2021/10/02 12:19:20;;;;;;;0.73;0.60;;;18.60;93.00;;;;;;5117585;28;20023;-75
2021/10/02 12:21:57;;;;;;;1.17;0.90;;;18.70;92.90;;;;;;5117870;28;20020;-75
2021/10/02 12:24:29;;;;;;;1.65;1.08;;;18.70;92.80;;;;;;5117662;28;20020;-75
2021/10/02 12:26:59;;;;;;;0.30;0.30;;;18.60;92.90;;;;;;5099175;28;20030;-73
2021/10/02 12:29:29;;;;;;;0.40;0.40;;;18.60;93.00;;;;;;5117429;28;20016;-76
2021/10/02 12:32:06;;;;;;;0.50;0.50;;;18.60;93.00;;;;;;5117028;28;20024;-74
2021/10/02 12:34:39;;;;;;;0.52;0.52;;;18.50;92.90;;;;;;5099201;28;20028;-74
2021/10/02 12:37:24;;;;;;;1.00;0.95;;;18.40;93.30;;;;;;5117379;28;20027;-76
2021/10/02 12:40:00;;;;;;;0.70;0.70;;;18.30;93.10;;;;;;5099036;28;20111;-76
2021/10/02 12:42:44;;;;;;;0.82;0.82;;;18.10;93.10;;;;;;5098881;28;20487;-74
2021/10/02 12:45:13;;;;;;;0.43;0.43;;;18.00;93.20;;;;;;5116721;28;20392;-73
2021/10/02 12:47:40;;;;;;;0.57;0.57;;;18.00;93.30;;;;;;5117123;28;20024;-75
2021/10/02 12:50:12;;;;;;;0.90;0.80;;;17.90;93.30;;;;;;5117119;28;20020;-79
2021/10/02 12:52:39;;;;;;;0.50;0.50;;;18.00;93.30;;;;;;5116957;28;20023;-72
2021/10/02 12:55:11;;;;;;;0.85;0.85;;;18.00;93.20;;;;;;5117218;28;20034;-72
2021/10/02 12:57:38;;;;;;;0.77;0.77;;;18.00;93.20;;;;;;5116926;28;20068;-72
2021/10/02 13:00:14;;;;;;;0.70;0.70;;;18.00;93.10;;;;;;5098195;28;20468;-72
2021/10/02 13:02:45;;;;;;;0.85;0.75;;;17.90;93.10;;;;;;5116940;28;20491;-74
2021/10/02 13:05:12;;;;;;;0.90;0.90;;;17.90;93.20;;;;;;5116678;28;20407;-75
2021/10/02 13:07:46;;;;;;;0.60;0.60;;;17.90;93.20;;;;;;5114245;28;20023;-75
2021/10/02 13:10:15;;;;;;;0.60;0.60;;;17.90;93.10;;;;;;5093300;28;20077;-74
2021/10/02 13:13:10;;;;;;;1.02;0.60;;;17.80;93.20;;;;;;5093607;28;20036;-73
2021/10/02 13:15:37;;;;;;;0.45;0.45;;;17.80;93.30;;;;;;5092705;28;20369;-74
2021/10/02 13:18:18;;;;;;;0.65;0.65;;;17.90;93.30;;;;;;5093400;28;20016;-75
2021/10/02 13:20:47;;;;;;;0.43;0.43;;;17.90;93.20;;;;;;5093152;28;20361;-76
2021/10/02 13:23:21;;;;;;;0.40;0.40;;;17.90;93.10;;;;;;5092787;28;20473;-75
2021/10/02 13:25:55;;;;;;;0.82;0.70;;;17.90;93.10;;;;;;5106528;28;20099;-76
2021/10/02 13:28:44;;;;;;;0.50;0.50;;;17.90;93.10;;;;;;5094533;28;20377;-76
2021/10/02 13:31:15;;;;;;;0.43;0.43;;;17.90;93.10;;;;;;5095132;28;20035;-75
2021/10/02 13:33:46;;;;;;;0.63;0.63;;;17.80;93.10;;;;;;5095309;28;20112;-74
2021/10/02 13:36:29;;;;;;;0.47;0.47;;;17.70;93.20;;;;;;5095843;28;20094;-74
2021/10/02 13:39:06;;;;;;;0.60;0.60;;;17.60;93.30;;;;;;5095797;28;20727;-75
2021/10/02 13:41:31;;;;;;;0.45;0.45;;;17.60;93.40;;;;;;5095837;28;20423;-74
2021/10/02 13:44:00;;;;;;;0.60;0.60;;;17.60;93.40;;;;;;5095233;28;20081;-73
2021/10/02 13:46:42;;;;;;;0.43;0.43;;;17.70;93.40;;;;;;5095656;28;20028;-73
2021/10/02 13:49:10;;;;;;;0.52;0.52;;;17.70;93.30;;;;;;5095481;28;20080;-75
2021/10/02 13:51:36;;;;;;;0.38;0.38;;;17.80;93.30;;;;;;5077277;28;20017;-74
2021/10/02 13:54:02;;;;;;;1.33;0.55;;;17.80;93.30;;;;;;5095356;28;20043;-75
2021/10/02 13:56:38;;;;;;;0.52;0.52;;;17.80;93.20;;;;;;5095454;28;20025;-75